Hyderabad, India
Current Conditions -  °F | °C
As of 4:40 PM on Wednesday 28 Jan 2015 (Local Time) from VOHS Reporting Station
Clear Clear  
Wind Chill: 81°   Ceiling: Unl
Heat Index: 81°   Visibility: 4mi
Dew Point: 50°   Wind: 10mph
Humidity: 34%   Direction: 100°E
Pressure: 29.91"   Gusts: NA
Location:  17.39°N, 78.49°E
Report Text: VOHS 281140Z 10009KT 6000 NSC 27/10 Q1013 NOSIG
Loading
Personal Weather Stations






























Interactive Weather Map New forecast layout! Learn more

10-Day Weather Forecast

Advertisements
Track Severe Weather on mobile